createdAt,value
2023-05-06T00:01:34.447Z,51.79
2023-05-06T00:04:05.420Z,51.46
2023-05-06T00:06:36.299Z,51.09
2023-05-06T00:09:07.131Z,50.96
2023-05-06T00:11:37.885Z,50.90
2023-05-06T00:14:09.018Z,50.72
2023-05-06T00:16:39.830Z,50.61
2023-05-06T00:19:10.669Z,50.41
2023-05-06T00:21:42.524Z,50.46
2023-05-06T00:24:13.237Z,50.37
2023-05-06T00:26:43.944Z,50.10
2023-05-06T00:29:14.653Z,49.99
2023-05-06T00:31:46.151Z,49.89
2023-05-06T00:34:17.083Z,49.81
2023-05-06T00:36:47.814Z,49.70
2023-05-06T00:39:18.649Z,49.73
2023-05-06T00:41:49.355Z,49.75
2023-05-06T00:44:20.011Z,49.69
2023-05-06T00:46:50.705Z,49.67
2023-05-06T00:49:22.388Z,49.53
2023-05-06T00:51:53.572Z,49.36
2023-05-06T00:54:25.525Z,49.33
2023-05-06T00:56:56.747Z,49.32
2023-05-06T00:59:27.539Z,49.16
2023-05-06T01:01:58.295Z,49.11
2023-05-06T01:04:29.968Z,49.01
2023-05-06T01:07:10.060Z,49.08
2023-05-06T01:09:52.157Z,49.04
2023-05-06T01:12:30.412Z,49.05
2023-05-06T01:15:09.798Z,48.88
2023-05-06T01:17:44.324Z,48.93
2023-05-06T01:20:16.038Z,48.95
2023-05-06T01:22:50.466Z,49.13
2023-05-06T01:25:25.352Z,49.08
2023-05-06T01:27:57.416Z,49.08
2023-05-06T01:30:34.327Z,49.14
2023-05-06T01:33:10.779Z,49.00
2023-05-06T01:35:55.119Z,48.92
2023-05-06T01:38:36.828Z,48.98
2023-05-06T01:41:09.453Z,48.86
2023-05-06T01:43:45.095Z,48.78
2023-05-06T01:46:21.380Z,48.82
2023-05-06T01:48:56.335Z,48.84
2023-05-06T01:51:27.973Z,48.80
2023-05-06T01:53:58.799Z,48.66
2023-05-06T01:56:30.461Z,48.70
2023-05-06T01:59:01.421Z,48.72
2023-05-06T02:01:32.506Z,48.63
2023-05-06T02:04:04.245Z,48.49
2023-05-06T02:06:38.546Z,48.46
2023-05-06T02:09:10.624Z,48.48
2023-05-06T02:11:46.388Z,48.74
2023-05-06T02:14:17.586Z,48.82
2023-05-06T02:16:48.684Z,48.96
2023-05-06T02:19:19.505Z,48.69
2023-05-06T02:21:50.176Z,48.80
2023-05-06T02:24:22.299Z,48.95
2023-05-06T02:26:53.085Z,48.84
2023-05-06T02:29:23.870Z,48.87
2023-05-06T02:31:54.730Z,48.83
2023-05-06T02:34:26.490Z,48.74
2023-05-06T02:36:57.607Z,48.88
2023-05-06T02:39:28.301Z,48.76
2023-05-06T02:41:58.962Z,48.92
2023-05-06T02:44:29.692Z,48.97
2023-05-06T02:47:02.565Z,49.00
2023-05-06T02:49:33.249Z,48.79
2023-05-06T02:52:03.926Z,48.89
2023-05-06T02:54:34.725Z,48.89
2023-05-06T02:57:05.478Z,49.12
2023-05-06T02:59:38.350Z,48.99
2023-05-06T03:02:09.254Z,48.99
2023-05-06T03:04:40.382Z,49.14
2023-05-06T03:07:11.834Z,49.24
2023-05-06T03:09:43.128Z,49.31
2023-05-06T03:12:14.552Z,49.30
2023-05-06T03:14:45.478Z,49.43
2023-05-06T03:17:16.528Z,49.40
2023-05-06T03:19:48.056Z,49.57
2023-05-06T03:22:18.968Z,49.45
2023-05-06T03:24:49.794Z,49.57
2023-05-06T03:27:21.361Z,49.78
2023-05-06T03:29:54.379Z,49.80
2023-05-06T03:32:29.388Z,49.69
2023-05-06T03:35:00.743Z,49.58
2023-05-06T03:37:32.877Z,49.56
2023-05-06T03:40:05.352Z,49.60
2023-05-06T03:42:37.101Z,49.77
2023-05-06T03:45:09.944Z,49.70
2023-05-06T03:47:41.199Z,49.67
2023-05-06T03:50:13.395Z,49.51
2023-05-06T03:52:44.480Z,49.63
2023-05-06T03:55:15.277Z,49.55
2023-05-06T03:57:46.162Z,49.75
2023-05-06T04:00:18.590Z,49.79
2023-05-06T04:02:50.648Z,49.70
2023-05-06T04:05:26.330Z,49.72
2023-05-06T04:07:57.169Z,49.90
2023-05-06T04:10:27.973Z,49.78
2023-05-06T04:13:01.229Z,49.89
2023-05-06T04:15:35.435Z,49.86
2023-05-06T04:18:08.646Z,50.03
2023-05-06T04:20:40.315Z,50.23
2023-05-06T04:23:11.183Z,50.19
2023-05-06T04:25:44.359Z,50.15
2023-05-06T04:28:16.546Z,50.27
2023-05-06T04:30:49.567Z,50.44
2023-05-06T04:33:20.953Z,50.24
2023-05-06T04:35:55.005Z,50.25
2023-05-06T04:38:30.719Z,50.36
2023-05-06T04:41:01.876Z,50.36
2023-05-06T04:43:33.298Z,50.68
2023-05-06T04:46:10.573Z,50.60
2023-05-06T04:48:42.532Z,50.62
2023-05-06T04:51:14.155Z,50.65
2023-05-06T04:53:45.363Z,50.66
2023-05-06T04:56:16.346Z,50.66
2023-05-06T04:58:47.077Z,50.66
2023-05-06T05:01:19.353Z,50.65
2023-05-06T05:03:50.541Z,50.64
2023-05-06T05:06:22.777Z,50.72
2023-05-06T05:08:55.190Z,50.87
2023-05-06T05:11:27.338Z,50.67
2023-05-06T05:14:01.814Z,50.78
2023-05-06T05:16:34.114Z,50.88
2023-05-06T05:19:08.935Z,50.95
2023-05-06T05:21:40.254Z,50.97
2023-05-06T05:24:11.988Z,51.08
2023-05-06T05:26:42.694Z,50.95
2023-05-06T05:29:14.222Z,50.88
2023-05-06T05:31:45.601Z,51.06
2023-05-06T05:34:16.668Z,51.10
2023-05-06T05:36:48.221Z,51.35
2023-05-06T05:39:19.076Z,51.25
2023-05-06T05:41:50.903Z,51.18
2023-05-06T05:44:21.732Z,51.18
2023-05-06T05:46:53.734Z,51.24
2023-05-06T05:49:24.695Z,51.25
2023-05-06T05:51:56.499Z,51.27
2023-05-06T05:54:27.335Z,51.33
2023-05-06T05:56:59.025Z,51.49
2023-05-06T05:59:31.690Z,51.68
2023-05-06T06:02:05.223Z,51.71
2023-05-06T06:04:36.507Z,51.72
2023-05-06T06:07:07.846Z,51.73
2023-05-06T06:09:41.744Z,51.69
2023-05-06T06:12:12.562Z,51.76
2023-05-06T06:14:47.949Z,51.74
2023-05-06T06:17:20.392Z,51.70
2023-05-06T06:19:57.254Z,51.83
2023-05-06T06:22:28.180Z,51.89
2023-05-06T06:24:59.567Z,51.95
2023-05-06T06:27:30.319Z,52.02
2023-05-06T06:30:01.326Z,51.87
2023-05-06T06:32:32.530Z,52.12
2023-05-06T06:35:03.410Z,51.99
2023-05-06T06:37:34.231Z,51.99
2023-05-06T06:40:05.330Z,51.65
2023-05-06T06:42:36.132Z,51.67
2023-05-06T06:45:14.485Z,51.61
2023-05-06T06:47:45.320Z,51.56
2023-05-06T06:50:16.316Z,51.59
2023-05-06T06:52:47.079Z,51.24
2023-05-06T06:55:17.781Z,50.92
2023-05-06T06:57:48.869Z,50.43
2023-05-06T07:00:19.976Z,50.03
2023-05-06T07:02:50.760Z,49.73
2023-05-06T07:05:21.449Z,48.89
2023-05-06T07:07:52.155Z,48.44
2023-05-06T07:10:23.013Z,48.09
2023-05-06T07:12:54.229Z,47.94
2023-05-06T07:15:25.876Z,47.54
2023-05-06T07:18:00.655Z,47.67
2023-05-06T07:20:32.163Z,47.79
2023-05-06T07:26:12.897Z,46.85
2023-05-06T07:28:44.128Z,46.54
2023-05-06T07:31:17.403Z,46.89
2023-05-06T07:33:58.504Z,46.51
2023-05-06T07:36:40.514Z,46.34
2023-05-06T07:39:11.918Z,46.12
2023-05-06T07:42:29.972Z,45.95
2023-05-06T07:45:02.316Z,45.89
2023-05-06T07:47:34.363Z,45.99
2023-05-06T07:50:07.248Z,45.81
2023-05-06T07:52:38.395Z,45.68
2023-05-06T07:55:11.549Z,45.41
2023-05-06T08:15:13.271Z,44.12
2023-05-06T08:18:33.383Z,43.58
2023-05-06T08:21:07.296Z,43.62
2023-05-06T08:23:38.697Z,43.51
2023-05-06T08:30:31.105Z,43.34
2023-05-06T08:39:23.833Z,42.87
2023-05-06T08:42:30.927Z,42.81
2023-05-06T08:45:09.414Z,42.69
2023-05-06T08:47:40.900Z,42.65
2023-05-06T08:50:22.329Z,42.40
2023-05-06T08:52:55.825Z,42.38
2023-05-06T08:55:27.725Z,42.25
2023-05-06T08:57:59.235Z,42.11
2023-05-06T09:00:32.955Z,41.81
2023-05-06T09:03:19.689Z,41.95
2023-05-06T09:05:50.838Z,42.04
2023-05-06T09:08:21.684Z,41.78
2023-05-06T09:10:59.841Z,41.92
2023-05-06T09:13:32.689Z,41.78
2023-05-06T09:16:06.756Z,41.39
2023-05-06T09:18:48.863Z,41.31
2023-05-06T09:21:20.108Z,41.37
2023-05-06T09:23:59.295Z,41.25
2023-05-06T09:26:32.939Z,41.22
2023-05-06T09:29:05.070Z,41.35
2023-05-06T09:31:43.341Z,41.33
2023-05-06T09:34:40.103Z,41.16
2023-05-06T09:37:14.130Z,40.97
2023-05-06T09:39:44.873Z,40.93
2023-05-06T09:42:17.777Z,40.72
2023-05-06T09:44:48.751Z,40.43
2023-05-06T09:47:20.134Z,40.50
2023-05-06T09:49:51.000Z,40.58
2023-05-06T09:52:22.136Z,40.36
2023-05-06T09:54:56.999Z,40.13
2023-05-06T10:01:49.304Z,39.71
2023-05-06T10:04:25.602Z,39.75
2023-05-06T10:07:00.518Z,39.74
2023-05-06T10:09:33.401Z,39.73
2023-05-06T10:12:05.689Z,39.60
2023-05-06T10:14:36.818Z,39.30
2023-05-06T10:17:10.900Z,39.15
2023-05-06T10:19:45.081Z,39.32
2023-05-06T10:22:28.579Z,39.34
2023-05-06T10:25:05.703Z,39.47
2023-05-06T10:27:40.890Z,39.21
2023-05-06T10:30:15.782Z,39.39
2023-05-06T10:32:47.713Z,39.51
2023-05-06T10:35:28.076Z,39.64
2023-05-06T10:38:01.147Z,39.91
2023-05-06T10:40:32.572Z,39.79
2023-05-06T10:43:23.725Z,40.09
2023-05-06T10:46:06.780Z,40.42
2023-05-06T10:48:38.746Z,40.22
2023-05-06T10:51:27.227Z,40.39
2023-05-06T10:54:08.946Z,40.76
2023-05-06T10:57:02.759Z,40.99
2023-05-06T10:59:33.713Z,40.95
2023-05-06T11:02:18.820Z,41.11
2023-05-06T11:05:01.289Z,41.40
2023-05-06T11:07:33.031Z,41.82
2023-05-06T11:10:06.859Z,41.88
2023-05-06T11:12:52.752Z,42.20
2023-05-06T11:15:43.891Z,42.47
2023-05-06T11:18:45.125Z,42.35
2023-05-06T11:21:40.961Z,42.42
2023-05-06T11:24:18.673Z,42.11
2023-05-06T11:26:50.988Z,42.37
2023-05-06T11:29:24.637Z,42.35
2023-05-06T11:31:55.981Z,42.34
2023-05-06T11:34:29.112Z,42.19
2023-05-06T11:37:07.240Z,42.21
2023-05-06T11:39:49.134Z,42.23
2023-05-06T11:42:27.546Z,42.27
2023-05-06T11:45:02.397Z,42.44
2023-05-06T11:47:36.258Z,42.48
2023-05-06T11:54:12.163Z,43.16
2023-05-06T11:56:52.093Z,43.05
2023-05-06T11:59:33.159Z,42.93
2023-05-06T12:02:06.373Z,43.42
2023-05-06T12:04:45.373Z,43.63
2023-05-06T12:07:18.952Z,44.08
2023-05-06T12:09:52.243Z,44.13
2023-05-06T12:12:25.255Z,44.10
2023-05-06T12:15:32.060Z,44.04
2023-05-06T12:29:08.665Z,43.99
2023-05-06T12:47:28.163Z,44.62
2023-05-06T12:50:09.199Z,45.19
2023-05-06T12:52:48.067Z,45.44
2023-05-06T12:55:23.535Z,45.55
2023-05-06T12:57:57.876Z,46.06
2023-05-06T13:00:30.164Z,46.24
2023-05-06T13:03:05.550Z,46.65
2023-05-06T13:05:50.595Z,46.89
2023-05-06T13:12:55.669Z,47.95
2023-05-06T13:15:27.145Z,48.30
2023-05-06T13:17:58.327Z,48.51
2023-05-06T13:21:17.991Z,48.75
2023-05-06T13:23:49.435Z,49.01
2023-05-06T13:26:20.921Z,49.55
2023-05-06T13:28:52.481Z,49.89
2023-05-06T13:31:28.160Z,50.26
2023-05-06T13:33:59.075Z,50.46
2023-05-06T13:36:32.665Z,50.70
2023-05-06T13:39:04.265Z,51.22
2023-05-06T13:41:35.316Z,51.37
2023-05-06T13:44:06.535Z,51.49
2023-05-06T13:46:37.485Z,51.80
2023-05-06T13:49:16.372Z,52.06
2023-05-06T13:51:48.939Z,52.46
2023-05-06T13:54:19.914Z,53.05
2023-05-06T13:56:51.092Z,53.29
2023-05-06T13:59:22.362Z,53.23
2023-05-06T14:01:57.438Z,53.70
2023-05-06T14:04:28.478Z,53.94
2023-05-06T14:06:59.563Z,54.13
2023-05-06T14:09:30.420Z,54.20
2023-05-06T14:12:01.589Z,54.19
2023-05-06T14:14:33.069Z,54.35
2023-05-06T14:17:04.227Z,54.46
2023-05-06T14:19:35.606Z,54.81
2023-05-06T14:22:06.579Z,54.96
2023-05-06T14:24:38.205Z,55.06
2023-05-06T14:27:09.982Z,55.37
2023-05-06T14:29:43.281Z,55.62
2023-05-06T14:32:14.413Z,55.85
2023-05-06T14:34:45.694Z,56.00
2023-05-06T14:37:16.951Z,56.28
2023-05-06T14:39:47.888Z,56.41
2023-05-06T14:42:20.115Z,56.62
2023-05-06T14:44:51.060Z,56.84
2023-05-06T14:47:24.373Z,57.19
2023-05-06T14:49:59.895Z,57.30
2023-05-06T14:52:30.990Z,57.50
2023-05-06T14:55:02.098Z,57.72
2023-05-06T14:57:36.078Z,57.78
2023-05-06T15:00:13.041Z,57.99
2023-05-06T15:02:44.190Z,58.29
2023-05-06T15:05:15.679Z,58.52
2023-05-06T15:07:46.671Z,58.53
2023-05-06T15:10:17.789Z,58.84
2023-05-06T15:12:48.914Z,58.86
2023-05-06T15:15:22.984Z,58.99
2023-05-06T15:17:55.259Z,59.12
2023-05-06T15:20:26.115Z,59.31
2023-05-06T15:22:56.862Z,59.56
2023-05-06T15:25:35.627Z,59.47
2023-05-06T15:28:08.088Z,59.69
2023-05-06T15:30:40.686Z,59.86
2023-05-06T15:33:13.097Z,60.09
2023-05-06T15:35:44.433Z,60.23
2023-05-06T15:38:15.513Z,60.25
2023-05-06T15:40:52.314Z,60.77
2023-05-06T15:43:26.464Z,60.76
2023-05-06T15:46:07.642Z,60.85
2023-05-06T15:48:38.720Z,61.00
2023-05-06T15:51:09.812Z,61.06
2023-05-06T15:53:44.057Z,61.12
2023-05-06T15:56:18.573Z,61.30
2023-05-06T15:58:52.655Z,61.35
2023-05-06T16:01:44.996Z,61.53
2023-05-06T16:04:15.329Z,61.56
2023-05-06T16:06:46.314Z,61.76
2023-05-06T16:09:17.405Z,61.74
2023-05-06T16:11:49.192Z,61.72
2023-05-06T16:14:20.768Z,61.90
2023-05-06T16:16:52.038Z,61.90
2023-05-06T16:19:23.337Z,62.11
2023-05-06T16:21:54.554Z,62.19
2023-05-06T16:24:26.438Z,62.42
2023-05-06T16:27:01.208Z,62.37
2023-05-06T16:29:32.109Z,62.60
2023-05-06T16:32:04.180Z,62.63
2023-05-06T16:34:35.375Z,62.75
2023-05-06T16:37:07.668Z,62.83
2023-05-06T16:39:38.825Z,62.83
2023-05-06T16:42:10.017Z,62.91
2023-05-06T16:44:41.164Z,62.98
2023-05-06T16:47:16.127Z,62.95
2023-05-06T16:49:46.029Z,63.26
2023-05-06T16:52:18.405Z,63.09
2023-05-06T16:54:51.292Z,63.11
2023-05-06T16:57:22.416Z,63.21
2023-05-06T16:59:53.460Z,63.22
2023-05-06T17:02:24.472Z,63.21
2023-05-06T17:04:55.650Z,63.21
2023-05-06T17:07:29.240Z,63.38
2023-05-06T17:10:00.692Z,63.50
2023-05-06T17:12:32.906Z,63.60
2023-05-06T17:15:06.102Z,63.46
2023-05-06T17:21:37.316Z,63.87
2023-05-06T17:24:08.521Z,64.03
2023-05-06T17:26:40.922Z,64.05
2023-05-06T17:29:11.949Z,64.18
2023-05-06T17:34:08.808Z,64.33
2023-05-06T17:36:42.623Z,64.38
2023-05-06T17:39:18.498Z,64.39
2023-05-06T17:41:50.570Z,64.50
2023-05-06T17:44:21.761Z,64.55
2023-05-06T17:46:53.238Z,64.82
2023-05-06T17:49:36.853Z,64.97
2023-05-06T17:52:07.941Z,64.82
2023-05-06T17:54:40.537Z,65.19
2023-05-06T17:57:11.857Z,65.31
2023-05-06T17:59:43.196Z,65.10
2023-05-06T18:02:18.936Z,65.23
2023-05-06T18:04:51.798Z,65.18
2023-05-06T18:07:22.588Z,65.32
2023-05-06T18:09:53.592Z,65.29
2023-05-06T18:12:28.728Z,65.58
2023-05-06T18:15:00.746Z,65.57
2023-05-06T18:17:31.787Z,65.88
2023-05-06T18:20:03.187Z,65.73
2023-05-06T18:22:45.058Z,65.61
2023-05-06T18:25:19.204Z,65.73
2023-05-06T18:27:54.496Z,65.87
2023-05-06T18:30:33.705Z,66.18
2023-05-06T18:33:05.768Z,66.17
2023-05-06T18:35:48.708Z,66.35
2023-05-06T18:38:24.898Z,66.13
2023-05-06T18:41:00.550Z,66.20
2023-05-06T18:43:32.570Z,66.19
2023-05-06T18:46:05.666Z,66.21
2023-05-06T18:48:37.146Z,66.30
2023-05-06T18:51:17.221Z,66.29
2023-05-06T18:53:49.235Z,66.24
2023-05-06T18:56:21.500Z,66.36
2023-05-06T18:59:16.951Z,66.21
2023-05-06T19:01:48.608Z,66.40
2023-05-06T19:04:20.364Z,66.48
2023-05-06T19:06:57.730Z,66.62
2023-05-06T19:09:28.908Z,66.39
2023-05-06T19:12:31.085Z,66.58
2023-05-06T19:15:02.974Z,66.54
2023-05-06T19:17:57.941Z,66.68
2023-05-06T19:24:31.153Z,66.74
2023-05-06T19:27:03.113Z,66.99
2023-05-06T19:29:33.981Z,66.83
2023-05-06T19:32:08.039Z,66.81
2023-05-06T19:34:41.253Z,67.04
2023-05-06T19:37:21.473Z,67.02
2023-05-06T19:39:56.798Z,67.01
2023-05-06T19:42:30.484Z,66.96
2023-05-06T19:45:09.101Z,67.04
2023-05-06T19:47:48.886Z,67.02
2023-05-06T19:50:20.568Z,67.22
2023-05-06T19:56:32.777Z,67.26
2023-05-06T19:59:06.800Z,67.21
2023-05-06T20:06:19.766Z,67.35
2023-05-06T20:21:19.230Z,66.46
2023-05-06T20:25:04.232Z,66.20
2023-05-06T20:27:35.258Z,66.68
2023-05-06T20:30:08.073Z,66.64
2023-05-06T20:32:40.420Z,66.73
2023-05-06T20:35:16.851Z,66.76
2023-05-06T20:37:48.210Z,66.71
2023-05-06T20:40:19.274Z,66.99
2023-05-06T20:42:52.298Z,67.01
2023-05-06T20:45:24.065Z,67.31
2023-05-06T20:47:55.234Z,67.32
2023-05-06T20:50:26.121Z,67.10
2023-05-06T20:53:02.288Z,67.25
2023-05-06T20:56:02.905Z,67.14
2023-05-06T20:58:36.034Z,67.30
2023-05-06T21:01:54.793Z,67.22
2023-05-06T21:04:30.418Z,67.34
2023-05-06T21:07:17.979Z,67.32
2023-05-06T21:09:49.012Z,67.42
2023-05-06T21:12:23.122Z,67.55
2023-05-06T21:14:54.338Z,67.63
2023-05-06T21:17:25.527Z,67.76
2023-05-06T21:19:57.133Z,67.89
2023-05-06T21:22:28.493Z,67.80
2023-05-06T21:25:00.933Z,67.70
2023-05-06T21:27:32.046Z,67.59
2023-05-06T21:30:03.300Z,67.77
2023-05-06T21:32:34.228Z,67.88
2023-05-06T21:35:06.123Z,67.74
2023-05-06T21:37:37.326Z,67.81
2023-05-06T21:40:12.304Z,67.91
2023-05-06T21:42:43.529Z,67.94
2023-05-06T21:45:16.347Z,67.64
2023-05-06T21:47:48.847Z,67.68
2023-05-06T21:50:20.173Z,67.73
2023-05-06T21:52:51.006Z,67.94
2023-05-06T21:55:22.936Z,67.86
2023-05-06T21:57:53.889Z,67.98
2023-05-06T22:00:24.887Z,67.68
2023-05-06T22:02:55.974Z,67.71
2023-05-06T22:05:26.997Z,67.65
2023-05-06T22:07:59.206Z,67.53
2023-05-06T22:10:30.997Z,67.66
2023-05-06T22:13:02.008Z,67.85
2023-05-06T22:15:33.547Z,67.85
2023-05-06T22:18:04.699Z,67.82
2023-05-06T22:20:36.580Z,67.91
2023-05-06T22:23:07.702Z,68.07
2023-05-06T22:25:43.084Z,68.01
2023-05-06T22:28:15.278Z,67.97
2023-05-06T22:30:46.381Z,68.26
2023-05-06T22:33:17.452Z,68.16
2023-05-06T22:35:48.613Z,68.03
2023-05-06T22:38:20.909Z,67.99
2023-05-06T22:40:53.482Z,68.17
2023-05-06T22:43:24.529Z,68.40
2023-05-06T22:45:55.430Z,68.38
2023-05-06T22:48:26.126Z,68.42
2023-05-06T22:50:57.381Z,68.36
2023-05-06T22:53:28.209Z,68.06
2023-05-06T22:55:59.163Z,68.36
2023-05-06T22:58:29.898Z,68.20
2023-05-06T23:01:01.471Z,68.57
2023-05-06T23:03:32.389Z,68.36
2023-05-06T23:06:04.560Z,68.29
2023-05-06T23:08:37.332Z,68.23
2023-05-06T23:11:08.474Z,68.59
2023-05-06T23:13:39.690Z,68.52
2023-05-06T23:16:10.539Z,68.97
2023-05-06T23:18:41.381Z,68.61
2023-05-06T23:21:12.771Z,68.57
2023-05-06T23:23:44.130Z,68.67
2023-05-06T23:26:14.880Z,68.66
2023-05-06T23:28:49.691Z,68.47
2023-05-06T23:31:20.482Z,68.23
2023-05-06T23:33:51.211Z,68.17
2023-05-06T23:36:22.445Z,68.40
2023-05-06T23:38:53.193Z,68.43
2023-05-06T23:41:24.525Z,68.57
2023-05-06T23:43:55.338Z,68.31
2023-05-06T23:46:26.224Z,68.28
2023-05-06T23:48:57.048Z,68.58
2023-05-06T23:51:27.773Z,68.62
2023-05-06T23:53:59.234Z,68.89
2023-05-06T23:56:30.259Z,68.89
2023-05-06T23:59:01.116Z,68.62
